Weather observations for the past three days for
Charlotte, Fitch H Beach Airport
Metric (Imperial)
Date Time (edt) Wind (kph) Vis. (km) Weather Sky Cond. Temperature (ºC) Relative Humidity Wind Chill (°C) Heat Index (°C) Pressure Precipitation (cm)
Air Dwpt 6 hour altimeter (cm) sea level (mb) 1 hr 3 hr 6 hr
Max. Min.
06 21:35 W 7 16.09 Overcast OVC085 9 -2 46% 8 75.97 0.0
06 21:15 W 7 16.09 Overcast OVC085 9 -2 46% 8 75.95 0.0
06 20:55 W 7 16.09 Overcast OVC085 9 -3 43% 8 75.95 0.0
06 20:35 W 7 16.09 Overcast OVC085 10 -3 40% 9 75.95 0.0
06 20:15 W 7 16.09 Overcast OVC075 10 -2 43% 9 75.95 0.0
06 19:55 W 11 16.09 Overcast OVC075 10 -3 13 10.2 40% 9 75.92 0.0
06 19:35 W 9 16.09 Overcast OVC075 10 -3 40% 9 75.92 0.0
06 19:15 W 15 16.09 Overcast OVC075 10 -3 40% 8 75.95 0.0
06 18:55 W 11 16.09 Overcast OVC075 11 -4 35% 75.92 0.0
06 18:35 W 15 G 26 16.09 Overcast OVC075 11 -3 38% 75.92 0.0
06 18:15 W 17 G 30 16.09 Mostly Cloudy BKN075 11 -4 35% 75.92 0.0
06 17:55 W 13 G 30 16.09 Mostly Cloudy BKN075 12 -3 35% 75.92 0.0
06 17:35 W 19 G 28 16.09 Overcast OVC075 12 -2 38% 75.9 0.0
06 17:15 NW 20 G 28 16.09 Overcast OVC075 11 -2 41% 75.92 0.0
06 16:55 NW 13 16.09 Overcast OVC075 11 -3 38% 75.92 0.0
06 16:35 W 22 16.09 Overcast OVC075 11 -3 38% 75.92 0.0
06 16:15 NW 15 16.09 Overcast OVC075 12 -2 38% 75.92 0.0
06 15:55 W 13 G 28 16.09 Mostly Cloudy BKN075 12 -2 38% 75.92 0.0
06 15:35 NW 22 16.09 Mostly Cloudy BKN075 12 -2 38% 75.92 0.0
06 15:15 NW 13 16.09 Mostly Cloudy BKN070 11 -2 41% 75.95 0.0
06 14:55 W 19 G 31 16.09 Mostly Cloudy BKN060 13 -2 36% 75.92 0.0
06 14:35 Vrbl 9 16.09 Overcast OVC060 13 -1 38% 75.92 0.0
06 14:15 N 13 G 26 16.09 Overcast OVC060 12 -1 41% 75.92 0.0
06 13:55 N 15 16.09 Overcast OVC060 11 -1 11.2 5.2 44% 75.92 0.0
06 13:35 NW 17 16.09 Mostly Cloudy BKN060 10 -2 43% 8 75.95 0.0
06 13:15 N 19 16.09 Partly Cloudy SCT060 10 -2 43% 8 75.97 0.0
06 12:55 Vrbl 11 16.09 Partly Cloudy SCT060 11 -1 44% 75.97 0.0
06 12:35 Vrbl 11 16.09 A Few Clouds FEW060 10 -3 40% 9 75.97 0.0
06 12:15 N 15 G 26 16.09 A Few Clouds FEW050 10 -2 43% 8 75.97 0.0
06 11:55 NW 13 16.09 A Few Clouds FEW046 10 -2 43% 8 75.97 0.0
06 11:35 NW 11 16.09 A Few Clouds FEW046 9 -1 50% 8 76 0.0
06 11:15 Vrbl 7 16.09 Fair CLR 9 0 54% 8 75.97 0.0
06 10:55 W 15 16.09 Fair CLR 10 0 50% 8 75.97 0.0
06 10:35 Vrbl 6 16.09 Fair CLR 9 0 54% 75.95 0.0
06 10:15 N 17 16.09 Fair CLR 8 0 57% 6 75.95 0.0
06 09:55 N 17 16.09 Fair CLR 8 -1 53% 6 75.92 0.0
06 09:35 N 9 16.09 Fair CLR 8 0 57% 7 75.9 0.0
06 09:15 NW 15 16.09 Fair CLR 7 -1 57% 5 75.9 0.0
06 08:55 Vrbl 11 16.09 Fair CLR 6 -1 61% 4 75.9 0.0
06 08:35 N 11 16.09 Fair CLR 6 -1 61% 4 75.9 0.0
06 08:15 NW 11 16.09 Fair CLR 6 -1 61% 4 75.87 0.0
06 07:55 NW 11 16.09 Fair CLR 5 -1 7.5 3.7 66% 3 75.84 0.0
06 07:35 NW 9 16.09 Fair CLR 4 -1 70% 2 75.82 0.0
06 07:15 Vrbl 9 16.09 Fair CLR 5 -1 66% 3 75.79 0.0
06 06:55 NW 7 16.09 Fair CLR 4 -1 70% 2 75.77 0.0
06 06:35 W 9 16.09 Fair CLR 4 -1 70% 2 75.77 0.0
06 06:15 W 7 16.09 Fair CLR 4 -1 70% 2 75.74 0.0
06 05:55 W 7 16.09 Fair CLR 5 -1 66% 4 75.77 0.0
06 05:35 W 9 16.09 Fair CLR 5 -1 66% 3 75.72 0.0
06 05:15 W 6 16.09 Fair CLR 6 -1 61% 75.72 0.0
06 04:55 NW 9 16.09 Fair CLR 6 -1 61% 4 75.69 0.0
06 04:35 NW 9 16.09 A Few Clouds FEW110 6 -1 61% 4 75.69 0.0
06 04:15 NW 9 16.09 Mostly Cloudy BKN110 6 -1 61% 4 75.69 0.0
06 03:55 NW 7 16.09 Partly Cloudy SCT110 6 -1 61% 5 75.69 0.0
06 03:35 NW 7 16.09 Fair CLR 6 -1 61% 5 75.69 0.0
06 03:15 NW 9 16.09 Fair CLR 7 -1 57% 5 75.72 0.0
06 02:55 NW 9 16.09 Fair CLR 7 -1 57% 5 75.69 0.0
06 02:35 NW 9 16.09 Fair CLR 7 -1 57% 5 75.69 0.0
06 02:15 NW 11 16.09 A Few Clouds FEW120 7 0 61% 5 75.72 0.0
06 01:55 NW 9 16.09 Partly Cloudy SCT120 7 0 9.7 7.3 61% 5 75.72 0.0
06 01:35 W 9 16.09 Overcast OVC110 7 0 61% 5 75.72 0.0
06 01:15 W 7 16.09 Overcast BKN100 OVC120 7 0 61% 6 75.72 0.0
06 00:55 NW 7 16.09 Overcast OVC090 8 0 57% 7 75.69 0.0
06 00:35 NW 7 16.09 Overcast BKN100 OVC120 8 0 57% 7 75.69 0.0
06 00:15 W 7 16.09 Mostly Cloudy BKN110 8 0 57% 7 75.72 0.0
05 23:55 W 7 16.09 Mostly Cloudy FEW095 BKN120 8 0 57% 7 75.67 0.0
05 23:35 NW 9 16.09 Overcast OVC120 8 0 57% 7 75.69 0.0
05 23:15 NW 7 16.09 Mostly Cloudy BKN110 8 0 57% 7 75.67 0.0
05 22:55 W 6 16.09 A Few Clouds FEW120 8 0 57% 75.67 0.0
05 22:35 W 6 16.09 Mostly Cloudy BKN120 8 0 57% 75.67 0.0
05 22:15 W 6 16.09 Overcast OVC120 8 0 57% 75.67 0.0
05 21:55 W 6 16.09 Mostly Cloudy BKN120 8 0 57% 75.64 0.0
05 21:35 W 6 16.09 Partly Cloudy SCT120 8 0 57% 75.64 0.0
05 21:15 W 6 16.09 Fair CLR 8 0 57% 75.62 0.0
05 20:55 W 7 16.09 Fair CLR 9 0 54% 8 75.62 0.0
05 20:35 W 7 16.09 A Few Clouds FEW120 9 -1 50% 8 75.62 0.0
05 20:15 W 7 16.09 Fair CLR 9 0 54% 8 75.62 0.0
05 19:55 W 7 16.09 A Few Clouds FEW120 10 -1 12.5 9.5 47% 9 75.62 0.0
05 19:35 W 13 16.09 Partly Cloudy SCT120 10 -1 47% 8 75.62 0.0
05 19:15 W 13 16.09 Mostly Cloudy BKN120 10 -1 47% 8 75.62 0.0
05 18:55 W 15 16.09 Mostly Cloudy BKN120 10 -1 47% 8 75.59 0.0
05 18:35 W 15 16.09 Partly Cloudy SCT120 10 -1 47% 8 75.62 0.0
05 18:15 W 17 16.09 Fair CLR 10 -2 43% 8 75.62 0.0
05 17:55 NW 19 16.09 Fair CLR 11 -2 41% 75.62 0.0
05 17:35 NW 15 16.09 Fair CLR 11 -2 41% 75.59 0.0
05 17:15 W 15 G 31 16.09 Fair CLR 12 -2 38% 75.59 0.0
05 16:55 W 19 16.09 A Few Clouds FEW095 12 -2 38% 75.59 0.0
05 16:35 W 20 16.09 Mostly Cloudy BKN085 12 -3 35% 75.59 0.0
05 16:15 W 24 G 35 16.09 Overcast OVC085 12 -2 38% 75.59 0.0
05 15:55 W 20 16.09 Overcast OVC085 12 -1 41% 75.59 0.0
05 15:35 W 20 16.09 Overcast OVC085 12 -1 41% 75.59 0.0
05 15:15 W 19 16.09 Overcast OVC095 12 -1 41% 75.59 0.0
05 14:55 W 17 16.09 Overcast OVC085 12 -1 41% 75.59 0.0
05 14:35 W 15 G 28 16.09 Overcast OVC085 12 1 47% 75.59 0.0
05 14:15 W 17 G 28 16.09 Overcast OVC075 12 1 47% 75.57 0.0
05 13:55 W 17 16.09 Overcast SCT041 OVC075 11 2 12.5 8.9 54% 75.57 0.0
05 13:35 W 19 G 26 16.09 Overcast FEW031 BKN041 OVC090 12 4 58% 75.54 0.0
05 13:15 W 11 G 26 16.09 Mostly Cloudy SCT030 SCT040 BKN090 12 6 67% 75.54 0.0
05 12:55 W 13 16.09 A Few Clouds FEW090 12 6 67% 75.51 0.0
05 12:35 W 13 16.09 A Few Clouds FEW016 10 6 76% 8 75.54 0.0
05 12:15 W 13 16.09 A Few Clouds FEW080 10 7 82% 8 75.54 0.0
05 11:55 Vrbl 11 16.09 Mostly Cloudy BKN080 10 7 82% 9 75.54 0.0 0.03
05 11:35 W 13 G 26 16.09 Overcast FEW050 OVC080 9 7 87% 7 75.54 0.0
05 11:15 W 11 16.09 Light Rain SCT050 BKN070 OVC090 9 7 87% 8 75.54 0.0
05 10:55 W 17 16.09 Light Rain BKN050 BKN070 OVC090 9 7 87% 7 75.54 0.0 0.05
05 10:35 W 9 16.09 Light Rain BKN050 OVC070 9 7 87% 8 75.51 0.0
05 10:15 SW 7 16.09 Light Rain BKN075 OVC080 9 7 87% 8 75.46 0.0
05 09:55 W 11 16.09 Light Rain FEW065 OVC075 9 6 82% 8 75.49 0.0 0.03
05 09:35 NW 9 16.09 Light Rain SCT060 OVC070 10 5 71% 9 75.46 0.0
05 09:15 W 17 16.09 Overcast SCT075 OVC085 10 5 71% 8 75.46 0.0
05 08:55 W 15 16.09 Light Rain BKN080 OVC100 10 4 67% 8 75.36 0.0
05 08:35 W 15 16.09 Overcast BKN080 OVC100 10 4 67% 8 75.36 0.0
05 08:15 W 15 16.09 Overcast OVC090 11 4 62% 75.31 0.0
05 07:55 W 11 16.09 Light Rain OVC090 11 4 14.3 10.6 62% 75.31 0.0
05 07:35 W 13 16.09 Overcast SCT075 OVC100 11 4 62% 75.31 0.0
05 07:15 W 15 16.09 Overcast BKN075 OVC090 11 4 62% 75.29 0.0
05 06:55 W 9 16.09 Overcast OVC090 11 4 62% 75.21 0.0
05 06:35 W 17 16.09 Overcast BKN090 OVC110 11 5 67% 75.23 0.0
05 06:15 W 15 16.09 Overcast BKN090 OVC110 11 5 67% 75.21 0.0
05 05:55 W 15 16.09 Overcast OVC100 12 6 67% 75.18 0.0
05 05:35 W 11 16.09 Overcast OVC110 12 6 67% 75.16 0.0
05 05:15 W 11 16.09 Mostly Cloudy FEW090 BKN110 12 7 72% 75.16 0.0
05 04:55 SW 9 16.09 A Few Clouds FEW120 12 7 72% 75.13 0.0
05 04:35 SW 11 16.09 A Few Clouds FEW120 13 8 72% 75.08 0.0
05 04:15 W 13 16.09 Fair CLR 13 10 82% 75.08 0.0
05 03:55 W 15 16.09 Fair CLR 13 11 88% 75.08 0.0
05 03:35 SW 11 16.09 Fair CLR 13 11 88% 75.03 0.0
05 03:15 SW 19 G 26 16.09 Fair CLR 14 11 82% 75.03 0.0
05 02:55 SW 15 16.09 Fair CLR 14 11 82% 75.01 0.0
05 02:35 SW 17 16.09 Fair CLR 14 11 82% 75.01 0.0
05 02:15 S 19 16.09 Fair CLR 14 11 82% 75.01 0.0
05 01:55 S 15 16.09 Fair CLR 14 12 22.8 14.2 88% 75.01 0.0 0.03
05 01:35 S 15 16.09 Partly Cloudy FEW070 SCT080 SCT120 14 12 88% 75.01 0.0
05 01:15 S 19 16.09 Light Rain BKN070 OVC080 14 12 88% 75.01 0.0
05 00:55 SW 15 16.09 Light Rain FEW017 FEW037 OVC080 14 12 88% 75.03 0.0 0.25
05 00:35 SW 24 16.09 Rain BKN075 BKN085 BKN120 15 12 82% 75.03 0.0
05 00:15 SW 22 G 30 16.09 Mostly Cloudy SCT095 BKN110 15 11 77% 74.98 0.0
04 23:55 S 15 16.09 Fair CLR 15 12 82% 74.96 0.0
04 23:35 S 15 16.09 Partly Cloudy SCT090 SCT120 16 13 83% 74.96 0.0
04 23:15 W 13 16.09 Light Rain FEW080 OVC090 17 12 73% 75.01 0.0
04 22:55 S 31 G 59 14.48 Light Rain SCT070 BKN090 OVC110 17 11 68% 74.93 0.0
04 22:35 SW 56 G 74 16.09 Light Rain and Windy BKN100 BKN120 19 11 60% 74.93 0.0
04 22:15 SW 31 G 39 16.09 Fair CLR 20 11 56% 74.88 0.0
04 21:55 SW 22 G 35 16.09 Fair CLR 20 11 56% 74.9 0.0
04 21:35 SW 28 G 44 16.09 Fair CLR 20 11 56% 74.9 0.0
04 21:15 SW 20 G 41 16.09 Fair CLR 20 11 56% 74.9 0.0
04 20:55 SW 26 G 43 16.09 A Few Clouds FEW100 21 10 50% 74.88 0.0
04 20:35 SW 31 G 56 16.09 Mostly Cloudy BKN090 22 10 47% 74.88 0.0
04 20:15 SW 22 G 31 16.09 Partly Cloudy SCT080 22 8 41% 74.85 0.0
04 19:55 W 11 16.09 Fair CLR 23 8 24.4 22.2 38% 74.85 0.0
04 19:35 W 11 G 33 16.09 Fair CLR 23 8 38% 74.85 0.0
04 19:15 W 15 G 26 16.09 A Few Clouds FEW080 23 9 41% 74.88 0.0
04 18:55 W 19 16.09 Partly Cloudy SCT080 SCT120 23 8 38% 74.88 0.0
04 18:35 W 22 16.09 A Few Clouds FEW080 24 8 36% 25 74.88 0.0
04 18:15 SW 17 G 31 16.09 Partly Cloudy FEW080 SCT090 SCT120 24 9 39% 25 74.88 0.0
04 17:55 SW 19 G 37 16.09 Partly Cloudy FEW065 FEW080 SCT110 23 9 41% 74.9 0.0
04 17:35 W 17 16.09 Mostly Cloudy SCT075 BKN085 23 10 44% 74.93 0.0
04 17:15 SW 26 G 35 16.09 Mostly Cloudy BKN075 BKN085 23 9 41% 74.96 0.0
04 16:55 SW 35 G 46 16.09 Partly Cloudy and Breezy SCT075 SCT085 24 8 36% 25 74.96 0.0
04 16:35 SW 30 G 43 16.09 Partly Cloudy SCT080 SCT090 24 8 36% 25 74.96 0.0
04 16:15 SW 31 G 52 16.09 Mostly Cloudy BKN080 BKN090 24 7 34% 25 74.98 0.0
04 15:55 SW 28 G 44 16.09 Mostly Cloudy BKN080 BKN085 23 6 33% 74.98 0.0
04 15:35 SW 26 G 50 16.09 Fair CLR 24 4 27% 25 75.01 0.0
04 15:15 SW 26 G 39 16.09 Fair CLR 24 5 29% 25 75.01 0.0
04 14:55 SW 30 G 46 16.09 A Few Clouds FEW080 23 5 31% 75.03 0.0
04 14:35 SW 31 G 41 16.09 Fair CLR 23 5 31% 75.03 0.0
04 14:15 SW 22 G 41 16.09 Fair CLR 23 4 29% 75.06 0.0
04 13:55 SW 28 G 43 16.09 Fair CLR 23 4 23.3 10 29% 75.08 0.0
04 13:35 W 28 G 56 16.09 Fair CLR 23 3 27% 75.11 0.0
04 13:15 SW 30 G 44 16.09 Fair CLR 23 3 27% 75.11 0.0
04 12:55 SW 19 G 44 16.09 Fair CLR 23 4 29% 75.13 0.0
04 12:35 SW 30 G 44 16.09 Fair CLR 22 4 31% 75.16 0.0
04 12:15 SW 28 G 39 16.09 Fair CLR 22 4 31% 75.16 0.0
04 11:55 SW 24 G 43 16.09 Fair CLR 21 5 35% 75.18 0.0
04 11:35 SW 24 G 33 16.09 Fair CLR 20 7 43% 75.21 0.0
04 11:15 SW 19 16.09 Fair CLR 20 8 46% 75.23 0.0
04 10:55 SW 20 16.09 Fair CLR 19 8 49% 75.23 0.0
04 10:35 SW 17 16.09 Fair CLR 18 8 52% 75.26 0.0
04 10:15 S 19 16.09 Fair CLR 16 7 55% 75.26 0.0
04 09:55 S 19 16.09 Fair CLR 15 8 63% 75.26 0.0
04 09:35 SW 15 16.09 Fair CLR 15 7 59% 75.29 0.0
04 09:15 SW 19 16.09 Fair CLR 14 7 63% 75.31 0.0
04 08:55 SW 22 16.09 Fair CLR 13 7 67% 75.31 0.0
04 08:35 SW 19 16.09 Fair CLR 12 7 72% 75.31 0.0
04 08:15 S 15 G 28 16.09 Fair CLR 11 6 72% 75.31 0.0
04 07:55 SW 17 16.09 Fair CLR 10 6 10 7.6 76% 8 75.31 0.0
04 07:35 SW 19 16.09 Fair CLR 9 6 82% 7 75.31 0.0
04 07:15 SW 17 16.09 Fair CLR 9 6 82% 7 75.31 0.0
04 06:55 SW 13 16.09 Fair CLR 8 5 82% 6 75.29 0.0
04 06:35 S 13 16.09 Fair CLR 8 5 82% 6 75.29 0.0
04 06:15 S 11 16.09 Fair CLR 8 5 82% 6 75.29 0.0
04 05:55 S 11 16.09 Fair CLR 8 5 82% 6 75.31 0.0
04 05:35 S 11 16.09 Fair CLR 8 5 82% 6 75.31 0.0
04 05:15 S 13 16.09 Fair CLR 8 5 82% 6 75.31 0.0
04 04:55 S 15 16.09 Fair CLR 8 5 82% 6 75.31 0.0
04 04:35 S 17 16.09 Fair CLR 8 5 82% 6 75.31 0.0
04 04:15 S 15 16.09 Fair CLR 9 5 76% 7 75.34 0.0
04 03:55 S 13 16.09 Fair CLR 9 5 76% 7 75.34 0.0
04 03:35 S 15 16.09 Fair CLR 9 5 76% 7 75.36 0.0
04 03:15 S 17 16.09 Fair CLR 9 5 76% 7 75.39 0.0
04 02:55 SW 17 16.09 Fair CLR 9 5 76% 7 75.39 0.0
04 02:35 SW 17 16.09 Fair CLR 9 5 76% 7 75.41 0.0
04 02:15 SW 19 16.09 Fair CLR 9 5 76% 7 75.44 0.0
04 01:55 SW 20 16.09 Fair CLR 9 5 11.4 8.8 76% 6 75.46 0.0
04 01:35 SW 20 G 28 16.09 Fair CLR 9 5 76% 6 75.49 0.0
04 01:15 SW 19 16.09 Fair CLR 9 4 71% 7 75.49 0.0
04 00:55 S 19 16.09 Fair CLR 9 4 71% 7 75.51 0.0
04 00:35 S 20 16.09 Fair CLR 10 4 67% 8 75.51 0.0
04 00:15 S 24 G 30 16.09 Fair CLR 9 4 71% 6 75.51 0.0
03 23:55 S 20 16.09 Fair CLR 9 4 71% 6 75.54 0.0
03 23:35 S 19 16.09 Fair CLR 9 4 71% 7 75.57 0.0
03 23:15 S 19 16.09 Fair CLR 9 4 71% 7 75.54 0.0
03 22:55 S 19 16.09 Fair CLR 10 4 67% 8 75.57 0.0
03 22:35 S 24 16.09 Mostly Cloudy BKN065 10 4 67% 7 75.57 0.0
03 22:15 S 17 16.09 Mostly Cloudy BKN065 10 4 67% 8 75.59 0.0
Date Time (edt) Wind (kph) Vis. (km) Weather Sky Cond. Air Dwpt Max. Min. Relative Humidity Wind Chill (°C) Heat Index (°C) altimeter (cm) sea level (mb) 1 hr 3 hr 6 hr
6 hour
Temperature (ºC) Pressure Precipitation (cm)